sensor_id;sensor_type;location;lat;lon;timestamp;P1;durP1;ratioP1;P2;durP2;ratioP2
23129;SDS011;11734;51.046;13.778;2023-05-29T00:01:05;7.33;;;5.47;;
23129;SDS011;11734;51.046;13.778;2023-05-29T00:03:34;7.37;;;5.90;;
23129;SDS011;11734;51.046;13.778;2023-05-29T00:06:02;6.10;;;5.23;;
23129;SDS011;11734;51.046;13.778;2023-05-29T00:08:30;7.30;;;5.60;;
23129;SDS011;11734;51.046;13.778;2023-05-29T00:10:57;6.17;;;5.20;;
23129;SDS011;11734;51.046;13.778;2023-05-29T00:13:24;6.03;;;5.10;;
23129;SDS011;11734;51.046;13.778;2023-05-29T00:15:52;7.50;;;5.60;;
23129;SDS011;11734;51.046;13.778;2023-05-29T00:18:20;5.77;;;5.17;;
23129;SDS011;11734;51.046;13.778;2023-05-29T00:20:47;6.63;;;5.33;;
23129;SDS011;11734;51.046;13.778;2023-05-29T00:23:14;6.17;;;5.57;;
23129;SDS011;11734;51.046;13.778;2023-05-29T00:25:42;6.83;;;6.03;;
23129;SDS011;11734;51.046;13.778;2023-05-29T00:28:09;6.30;;;5.43;;
23129;SDS011;11734;51.046;13.778;2023-05-29T00:30:38;6.97;;;5.67;;
23129;SDS011;11734;51.046;13.778;2023-05-29T00:33:06;6.43;;;5.33;;
23129;SDS011;11734;51.046;13.778;2023-05-29T00:35:34;6.83;;;5.17;;
23129;SDS011;11734;51.046;13.778;2023-05-29T00:38:02;5.47;;;4.90;;
23129;SDS011;11734;51.046;13.778;2023-05-29T00:40:30;6.83;;;5.50;;
23129;SDS011;11734;51.046;13.778;2023-05-29T00:42:57;6.03;;;5.07;;
23129;SDS011;11734;51.046;13.778;2023-05-29T00:45:24;5.67;;;4.60;;
23129;SDS011;11734;51.046;13.778;2023-05-29T00:47:52;6.77;;;5.83;;
23129;SDS011;11734;51.046;13.778;2023-05-29T00:50:38;7.60;;;5.50;;
23129;SDS011;11734;51.046;13.778;2023-05-29T00:53:06;5.77;;;5.17;;
23129;SDS011;11734;51.046;13.778;2023-05-29T00:55:34;6.43;;;4.90;;
23129;SDS011;11734;51.046;13.778;2023-05-29T00:58:02;7.20;;;5.43;;
23129;SDS011;11734;51.046;13.778;2023-05-29T01:00:29;5.93;;;4.93;;
23129;SDS011;11734;51.046;13.778;2023-05-29T01:02:57;6.37;;;5.70;;
23129;SDS011;11734;51.046;13.778;2023-05-29T01:05:24;5.20;;;4.70;;
23129;SDS011;11734;51.046;13.778;2023-05-29T01:07:51;5.67;;;4.70;;
23129;SDS011;11734;51.046;13.778;2023-05-29T01:10:19;5.63;;;5.13;;
23129;SDS011;11734;51.046;13.778;2023-05-29T01:12:51;5.10;;;4.40;;
23129;SDS011;11734;51.046;13.778;2023-05-29T01:18:12;5.10;;;4.60;;
23129;SDS011;11734;51.046;13.778;2023-05-29T01:20:52;6.23;;;5.20;;
23129;SDS011;11734;51.046;13.778;2023-05-29T01:28:44;6.20;;;4.47;;
23129;SDS011;11734;51.046;13.778;2023-05-29T01:31:16;4.93;;;4.50;;
23129;SDS011;11734;51.046;13.778;2023-05-29T01:33:51;5.83;;;4.77;;
23129;SDS011;11734;51.046;13.778;2023-05-29T01:36:18;5.97;;;4.90;;
23129;SDS011;11734;51.046;13.778;2023-05-29T01:38:48;4.97;;;4.47;;
23129;SDS011;11734;51.046;13.778;2023-05-29T01:41:16;7.20;;;4.37;;
23129;SDS011;11734;51.046;13.778;2023-05-29T01:43:44;5.03;;;4.50;;
23129;SDS011;11734;51.046;13.778;2023-05-29T01:46:12;6.03;;;4.80;;
23129;SDS011;11734;51.046;13.778;2023-05-29T01:48:44;5.57;;;4.43;;
23129;SDS011;11734;51.046;13.778;2023-05-29T01:51:12;5.80;;;4.10;;
23129;SDS011;11734;51.046;13.778;2023-05-29T01:53:40;5.33;;;4.40;;
23129;SDS011;11734;51.046;13.778;2023-05-29T01:56:08;5.10;;;3.90;;
23129;SDS011;11734;51.046;13.778;2023-05-29T01:58:36;4.67;;;4.13;;
23129;SDS011;11734;51.046;13.778;2023-05-29T02:01:04;4.70;;;4.20;;
23129;SDS011;11734;51.046;13.778;2023-05-29T02:03:32;5.33;;;4.23;;
23129;SDS011;11734;51.046;13.778;2023-05-29T02:06:00;5.40;;;4.23;;
23129;SDS011;11734;51.046;13.778;2023-05-29T02:08:27;5.97;;;4.47;;
23129;SDS011;11734;51.046;13.778;2023-05-29T02:10:55;5.33;;;4.03;;
23129;SDS011;11734;51.046;13.778;2023-05-29T02:13:22;4.83;;;4.07;;
23129;SDS011;11734;51.046;13.778;2023-05-29T02:15:50;5.67;;;4.60;;
23129;SDS011;11734;51.046;13.778;2023-05-29T02:18:18;4.30;;;3.73;;
23129;SDS011;11734;51.046;13.778;2023-05-29T02:20:45;4.73;;;3.97;;
23129;SDS011;11734;51.046;13.778;2023-05-29T02:23:20;4.47;;;3.97;;
23129;SDS011;11734;51.046;13.778;2023-05-29T02:25:49;5.10;;;4.00;;
23129;SDS011;11734;51.046;13.778;2023-05-29T02:28:17;5.10;;;4.20;;
23129;SDS011;11734;51.046;13.778;2023-05-29T02:30:44;5.00;;;4.37;;
23129;SDS011;11734;51.046;13.778;2023-05-29T02:33:12;5.23;;;4.30;;
23129;SDS011;11734;51.046;13.778;2023-05-29T02:35:39;4.93;;;3.63;;
23129;SDS011;11734;51.046;13.778;2023-05-29T02:38:07;4.73;;;4.10;;
23129;SDS011;11734;51.046;13.778;2023-05-29T02:40:34;4.60;;;4.00;;
23129;SDS011;11734;51.046;13.778;2023-05-29T02:43:01;4.63;;;3.97;;
23129;SDS011;11734;51.046;13.778;2023-05-29T02:45:30;5.17;;;3.90;;
23129;SDS011;11734;51.046;13.778;2023-05-29T02:47:58;4.73;;;4.00;;
23129;SDS011;11734;51.046;13.778;2023-05-29T02:50:26;4.37;;;3.60;;
23129;SDS011;11734;51.046;13.778;2023-05-29T02:52:54;4.07;;;3.60;;
23129;SDS011;11734;51.046;13.778;2023-05-29T02:55:21;4.13;;;3.50;;
23129;SDS011;11734;51.046;13.778;2023-05-29T02:57:49;4.30;;;3.43;;
23129;SDS011;11734;51.046;13.778;2023-05-29T03:00:19;4.80;;;3.70;;
23129;SDS011;11734;51.046;13.778;2023-05-29T03:02:47;4.93;;;3.73;;
23129;SDS011;11734;51.046;13.778;2023-05-29T03:05:14;4.50;;;3.87;;
23129;SDS011;11734;51.046;13.778;2023-05-29T03:07:42;4.37;;;3.60;;
23129;SDS011;11734;51.046;13.778;2023-05-29T03:10:10;4.97;;;3.83;;
23129;SDS011;11734;51.046;13.778;2023-05-29T03:12:38;4.40;;;3.57;;
23129;SDS011;11734;51.046;13.778;2023-05-29T03:15:05;4.27;;;3.60;;
23129;SDS011;11734;51.046;13.778;2023-05-29T03:17:34;4.60;;;4.13;;
23129;SDS011;11734;51.046;13.778;2023-05-29T03:20:09;4.40;;;3.97;;
23129;SDS011;11734;51.046;13.778;2023-05-29T03:22:37;6.20;;;3.67;;
23129;SDS011;11734;51.046;13.778;2023-05-29T03:25:05;5.60;;;4.07;;
23129;SDS011;11734;51.046;13.778;2023-05-29T03:27:33;4.27;;;3.47;;
23129;SDS011;11734;51.046;13.778;2023-05-29T03:30:09;4.30;;;3.73;;
23129;SDS011;11734;51.046;13.778;2023-05-29T03:32:37;4.53;;;3.47;;
23129;SDS011;11734;51.046;13.778;2023-05-29T03:35:05;5.30;;;4.00;;
23129;SDS011;11734;51.046;13.778;2023-05-29T03:37:33;5.13;;;3.60;;
23129;SDS011;11734;51.046;13.778;2023-05-29T03:40:01;4.90;;;3.97;;
23129;SDS011;11734;51.046;13.778;2023-05-29T03:42:29;4.30;;;3.57;;
23129;SDS011;11734;51.046;13.778;2023-05-29T03:44:59;3.70;;;3.40;;
23129;SDS011;11734;51.046;13.778;2023-05-29T03:47:31;4.20;;;3.80;;
23129;SDS011;11734;51.046;13.778;2023-05-29T03:49:59;4.67;;;3.70;;
23129;SDS011;11734;51.046;13.778;2023-05-29T03:52:31;4.83;;;3.97;;
23129;SDS011;11734;51.046;13.778;2023-05-29T03:54:59;5.87;;;4.03;;
23129;SDS011;11734;51.046;13.778;2023-05-29T03:57:26;5.63;;;3.80;;
23129;SDS011;11734;51.046;13.778;2023-05-29T03:59:54;4.17;;;3.63;;
23129;SDS011;11734;51.046;13.778;2023-05-29T04:02:21;4.30;;;3.67;;
23129;SDS011;11734;51.046;13.778;2023-05-29T04:04:49;4.10;;;3.67;;
23129;SDS011;11734;51.046;13.778;2023-05-29T04:07:17;4.00;;;3.50;;
23129;SDS011;11734;51.046;13.778;2023-05-29T04:09:44;4.97;;;4.33;;
23129;SDS011;11734;51.046;13.778;2023-05-29T04:12:12;4.10;;;3.70;;
23129;SDS011;11734;51.046;13.778;2023-05-29T04:14:40;5.70;;;4.20;;
23129;SDS011;11734;51.046;13.778;2023-05-29T04:17:07;5.33;;;3.73;;
23129;SDS011;11734;51.046;13.778;2023-05-29T04:19:34;4.00;;;3.60;;
23129;SDS011;11734;51.046;13.778;2023-05-29T04:22:02;4.87;;;3.83;;
23129;SDS011;11734;51.046;13.778;2023-05-29T04:24:30;4.43;;;3.43;;
23129;SDS011;11734;51.046;13.778;2023-05-29T04:26:58;5.57;;;3.90;;
23129;SDS011;11734;51.046;13.778;2023-05-29T04:29:28;4.97;;;3.57;;
23129;SDS011;11734;51.046;13.778;2023-05-29T04:31:57;5.03;;;3.67;;
23129;SDS011;11734;51.046;13.778;2023-05-29T04:34:25;3.80;;;3.43;;
23129;SDS011;11734;51.046;13.778;2023-05-29T04:36:53;4.70;;;4.00;;
23129;SDS011;11734;51.046;13.778;2023-05-29T04:39:21;4.53;;;4.07;;
23129;SDS011;11734;51.046;13.778;2023-05-29T04:41:48;5.33;;;4.20;;
23129;SDS011;11734;51.046;13.778;2023-05-29T04:44:19;5.37;;;4.20;;
23129;SDS011;11734;51.046;13.778;2023-05-29T04:46:50;4.97;;;4.47;;
23129;SDS011;11734;51.046;13.778;2023-05-29T04:49:19;4.67;;;3.97;;
23129;SDS011;11734;51.046;13.778;2023-05-29T04:51:46;5.20;;;4.10;;
23129;SDS011;11734;51.046;13.778;2023-05-29T04:54:14;4.33;;;3.93;;
23129;SDS011;11734;51.046;13.778;2023-05-29T04:56:43;4.00;;;3.60;;
23129;SDS011;11734;51.046;13.778;2023-05-29T04:59:13;4.73;;;3.67;;
23129;SDS011;11734;51.046;13.778;2023-05-29T05:01:40;5.60;;;3.83;;
23129;SDS011;11734;51.046;13.778;2023-05-29T05:04:09;4.40;;;3.67;;
23129;SDS011;11734;51.046;13.778;2023-05-29T05:06:37;4.97;;;4.10;;
23129;SDS011;11734;51.046;13.778;2023-05-29T05:09:05;5.10;;;3.93;;
23129;SDS011;11734;51.046;13.778;2023-05-29T05:11:32;5.30;;;3.83;;
23129;SDS011;11734;51.046;13.778;2023-05-29T05:14:00;4.20;;;3.47;;
23129;SDS011;11734;51.046;13.778;2023-05-29T05:16:29;4.20;;;3.73;;
23129;SDS011;11734;51.046;13.778;2023-05-29T05:18:56;4.23;;;3.77;;
23129;SDS011;11734;51.046;13.778;2023-05-29T05:21:24;4.47;;;3.70;;
23129;SDS011;11734;51.046;13.778;2023-05-29T05:23:53;4.07;;;3.47;;
23129;SDS011;11734;51.046;13.778;2023-05-29T05:26:25;3.77;;;3.47;;
23129;SDS011;11734;51.046;13.778;2023-05-29T05:28:54;3.77;;;3.47;;
23129;SDS011;11734;51.046;13.778;2023-05-29T05:31:24;3.53;;;3.13;;
23129;SDS011;11734;51.046;13.778;2023-05-29T05:33:52;7.20;;;3.90;;
23129;SDS011;11734;51.046;13.778;2023-05-29T05:36:20;4.17;;;3.77;;
23129;SDS011;11734;51.046;13.778;2023-05-29T05:38:54;4.70;;;3.83;;
23129;SDS011;11734;51.046;13.778;2023-05-29T05:41:22;3.97;;;3.47;;
23129;SDS011;11734;51.046;13.778;2023-05-29T05:43:50;5.13;;;3.97;;
23129;SDS011;11734;51.046;13.778;2023-05-29T05:46:26;6.10;;;3.77;;
23129;SDS011;11734;51.046;13.778;2023-05-29T05:48:54;4.60;;;4.10;;
23129;SDS011;11734;51.046;13.778;2023-05-29T05:51:25;4.17;;;3.60;;
23129;SDS011;11734;51.046;13.778;2023-05-29T05:53:53;4.10;;;3.63;;
23129;SDS011;11734;51.046;13.778;2023-05-29T05:56:20;4.80;;;3.87;;
23129;SDS011;11734;51.046;13.778;2023-05-29T05:58:48;5.20;;;3.77;;
23129;SDS011;11734;51.046;13.778;2023-05-29T06:01:18;4.47;;;4.07;;
23129;SDS011;11734;51.046;13.778;2023-05-29T06:03:47;5.00;;;3.97;;
23129;SDS011;11734;51.046;13.778;2023-05-29T06:06:14;4.87;;;4.33;;
23129;SDS011;11734;51.046;13.778;2023-05-29T06:08:44;4.13;;;3.80;;
23129;SDS011;11734;51.046;13.778;2023-05-29T06:11:12;4.40;;;4.00;;
23129;SDS011;11734;51.046;13.778;2023-05-29T06:13:43;5.07;;;3.97;;
23129;SDS011;11734;51.046;13.778;2023-05-29T06:16:36;5.53;;;4.10;;
23129;SDS011;11734;51.046;13.778;2023-05-29T06:19:03;3.90;;;3.50;;
23129;SDS011;11734;51.046;13.778;2023-05-29T06:21:40;4.50;;;4.10;;
23129;SDS011;11734;51.046;13.778;2023-05-29T06:24:07;4.20;;;3.80;;
23129;SDS011;11734;51.046;13.778;2023-05-29T06:26:36;4.97;;;4.43;;
23129;SDS011;11734;51.046;13.778;2023-05-29T06:29:05;6.33;;;4.50;;
23129;SDS011;11734;51.046;13.778;2023-05-29T06:31:33;4.57;;;4.17;;
23129;SDS011;11734;51.046;13.778;2023-05-29T06:34:00;4.80;;;4.30;;
23129;SDS011;11734;51.046;13.778;2023-05-29T06:36:27;4.50;;;3.97;;
23129;SDS011;11734;51.046;13.778;2023-05-29T06:38:55;4.50;;;3.93;;
23129;SDS011;11734;51.046;13.778;2023-05-29T06:41:22;5.13;;;4.20;;
23129;SDS011;11734;51.046;13.778;2023-05-29T06:43:50;4.60;;;4.17;;
23129;SDS011;11734;51.046;13.778;2023-05-29T06:46:20;4.47;;;3.93;;
23129;SDS011;11734;51.046;13.778;2023-05-29T06:48:47;5.43;;;4.40;;
23129;SDS011;11734;51.046;13.778;2023-05-29T06:51:15;4.40;;;4.00;;
23129;SDS011;11734;51.046;13.778;2023-05-29T06:54:03;5.20;;;4.10;;
23129;SDS011;11734;51.046;13.778;2023-05-29T06:56:32;6.67;;;4.43;;
23129;SDS011;11734;51.046;13.778;2023-05-29T06:58:59;4.90;;;4.20;;
23129;SDS011;11734;51.046;13.778;2023-05-29T07:01:29;6.00;;;4.30;;
23129;SDS011;11734;51.046;13.778;2023-05-29T07:04:00;5.43;;;3.93;;
23129;SDS011;11734;51.046;13.778;2023-05-29T07:06:29;5.10;;;4.00;;
23129;SDS011;11734;51.046;13.778;2023-05-29T07:08:57;4.10;;;3.53;;
23129;SDS011;11734;51.046;13.778;2023-05-29T07:11:25;6.57;;;4.57;;
23129;SDS011;11734;51.046;13.778;2023-05-29T07:13:55;4.07;;;3.67;;
23129;SDS011;11734;51.046;13.778;2023-05-29T07:16:25;5.33;;;3.50;;
23129;SDS011;11734;51.046;13.778;2023-05-29T07:18:57;4.77;;;4.10;;
23129;SDS011;11734;51.046;13.778;2023-05-29T07:21:28;4.00;;;3.40;;
23129;SDS011;11734;51.046;13.778;2023-05-29T07:23:55;4.43;;;3.57;;
23129;SDS011;11734;51.046;13.778;2023-05-29T07:26:22;4.63;;;3.60;;
23129;SDS011;11734;51.046;13.778;2023-05-29T07:28:50;5.73;;;3.60;;
23129;SDS011;11734;51.046;13.778;2023-05-29T07:31:18;5.63;;;4.10;;
23129;SDS011;11734;51.046;13.778;2023-05-29T07:33:48;6.13;;;3.50;;
23129;SDS011;11734;51.046;13.778;2023-05-29T07:36:16;4.17;;;3.20;;
23129;SDS011;11734;51.046;13.778;2023-05-29T07:38:46;3.77;;;3.30;;
23129;SDS011;11734;51.046;13.778;2023-05-29T07:41:15;4.40;;;3.00;;
23129;SDS011;11734;51.046;13.778;2023-05-29T07:43:50;3.77;;;3.30;;
23129;SDS011;11734;51.046;13.778;2023-05-29T07:46:19;4.80;;;3.27;;
23129;SDS011;11734;51.046;13.778;2023-05-29T07:48:50;4.03;;;3.40;;
23129;SDS011;11734;51.046;13.778;2023-05-29T07:51:19;3.13;;;2.80;;
23129;SDS011;11734;51.046;13.778;2023-05-29T07:54:05;3.50;;;3.10;;
23129;SDS011;11734;51.046;13.778;2023-05-29T07:56:33;3.87;;;3.13;;
23129;SDS011;11734;51.046;13.778;2023-05-29T07:59:01;3.13;;;2.83;;
23129;SDS011;11734;51.046;13.778;2023-05-29T08:01:29;4.10;;;2.77;;
23129;SDS011;11734;51.046;13.778;2023-05-29T08:03:57;3.50;;;2.97;;
23129;SDS011;11734;51.046;13.778;2023-05-29T08:06:29;3.97;;;3.17;;
23129;SDS011;11734;51.046;13.778;2023-05-29T08:08:59;3.43;;;2.93;;
23129;SDS011;11734;51.046;13.778;2023-05-29T08:11:27;3.13;;;2.80;;
23129;SDS011;11734;51.046;13.778;2023-05-29T08:13:55;3.53;;;3.20;;
23129;SDS011;11734;51.046;13.778;2023-05-29T08:16:23;4.53;;;3.40;;
23129;SDS011;11734;51.046;13.778;2023-05-29T08:18:50;3.77;;;2.97;;
23129;SDS011;11734;51.046;13.778;2023-05-29T08:21:17;4.30;;;3.20;;
23129;SDS011;11734;51.046;13.778;2023-05-29T08:23:45;3.53;;;2.73;;
23129;SDS011;11734;51.046;13.778;2023-05-29T08:26:12;2.93;;;2.43;;
23129;SDS011;11734;51.046;13.778;2023-05-29T08:28:39;4.07;;;3.17;;
23129;SDS011;11734;51.046;13.778;2023-05-29T08:31:08;3.50;;;3.10;;
23129;SDS011;11734;51.046;13.778;2023-05-29T08:33:35;3.00;;;2.67;;
23129;SDS011;11734;51.046;13.778;2023-05-29T08:36:03;4.10;;;2.63;;
23129;SDS011;11734;51.046;13.778;2023-05-29T08:38:31;3.40;;;3.10;;
23129;SDS011;11734;51.046;13.778;2023-05-29T08:40:58;2.70;;;2.50;;
23129;SDS011;11734;51.046;13.778;2023-05-29T08:43:29;3.63;;;3.07;;
23129;SDS011;11734;51.046;13.778;2023-05-29T08:46:01;3.80;;;2.70;;
23129;SDS011;11734;51.046;13.778;2023-05-29T08:48:29;3.00;;;2.50;;
23129;SDS011;11734;51.046;13.778;2023-05-29T08:50:57;3.50;;;2.80;;
23129;SDS011;11734;51.046;13.778;2023-05-29T08:53:25;3.27;;;2.43;;
23129;SDS011;11734;51.046;13.778;2023-05-29T08:55:53;3.33;;;2.10;;
23129;SDS011;11734;51.046;13.778;2023-05-29T08:58:22;3.00;;;2.10;;
23129;SDS011;11734;51.046;13.778;2023-05-29T09:00:50;2.30;;;2.10;;
23129;SDS011;11734;51.046;13.778;2023-05-29T09:03:17;2.70;;;2.37;;
23129;SDS011;11734;51.046;13.778;2023-05-29T09:05:47;2.97;;;2.37;;
23129;SDS011;11734;51.046;13.778;2023-05-29T09:08:15;3.40;;;2.63;;
23129;SDS011;11734;51.046;13.778;2023-05-29T09:10:43;3.20;;;2.60;;
23129;SDS011;11734;51.046;13.778;2023-05-29T09:13:11;3.07;;;2.57;;
23129;SDS011;11734;51.046;13.778;2023-05-29T09:15:40;4.57;;;2.80;;
23129;SDS011;11734;51.046;13.778;2023-05-29T09:18:10;3.00;;;2.60;;
23129;SDS011;11734;51.046;13.778;2023-05-29T09:20:38;2.60;;;2.40;;
23129;SDS011;11734;51.046;13.778;2023-05-29T09:23:07;3.23;;;2.60;;
23129;SDS011;11734;51.046;13.778;2023-05-29T09:25:36;2.87;;;2.40;;
23129;SDS011;11734;51.046;13.778;2023-05-29T09:28:06;2.77;;;2.20;;
23129;SDS011;11734;51.046;13.778;2023-05-29T09:33:02;2.50;;;2.10;;
23129;SDS011;11734;51.046;13.778;2023-05-29T09:35:33;1.97;;;1.70;;
23129;SDS011;11734;51.046;13.778;2023-05-29T09:38:01;4.53;;;2.00;;
23129;SDS011;11734;51.046;13.778;2023-05-29T09:40:29;3.67;;;2.00;;
23129;SDS011;11734;51.046;13.778;2023-05-29T09:43:10;2.30;;;2.10;;
23129;SDS011;11734;51.046;13.778;2023-05-29T09:45:38;2.40;;;2.20;;
23129;SDS011;11734;51.046;13.778;2023-05-29T09:48:07;2.70;;;2.17;;
23129;SDS011;11734;51.046;13.778;2023-05-29T09:50:35;2.50;;;1.90;;
23129;SDS011;11734;51.046;13.778;2023-05-29T09:53:02;2.80;;;2.17;;
23129;SDS011;11734;51.046;13.778;2023-05-29T09:55:30;2.30;;;2.10;;
23129;SDS011;11734;51.046;13.778;2023-05-29T09:57:59;3.10;;;2.20;;
23129;SDS011;11734;51.046;13.778;2023-05-29T10:00:28;3.03;;;2.03;;
23129;SDS011;11734;51.046;13.778;2023-05-29T10:02:57;2.83;;;2.00;;
23129;SDS011;11734;51.046;13.778;2023-05-29T10:05:25;4.10;;;2.20;;
23129;SDS011;11734;51.046;13.778;2023-05-29T10:07:53;2.10;;;1.90;;
23129;SDS011;11734;51.046;13.778;2023-05-29T10:10:22;2.20;;;2.00;;
23129;SDS011;11734;51.046;13.778;2023-05-29T10:12:52;2.40;;;2.20;;
23129;SDS011;11734;51.046;13.778;2023-05-29T10:15:20;2.87;;;2.20;;
23129;SDS011;11734;51.046;13.778;2023-05-29T10:20:17;2.57;;;2.20;;
23129;SDS011;11734;51.046;13.778;2023-05-29T10:22:46;2.53;;;2.10;;
23129;SDS011;11734;51.046;13.778;2023-05-29T10:25:14;2.80;;;2.50;;
23129;SDS011;11734;51.046;13.778;2023-05-29T10:27:42;2.57;;;2.10;;
23129;SDS011;11734;51.046;13.778;2023-05-29T10:30:14;2.80;;;2.30;;
23129;SDS011;11734;51.046;13.778;2023-05-29T10:32:56;3.13;;;2.60;;
23129;SDS011;11734;51.046;13.778;2023-05-29T10:35:29;3.07;;;2.20;;
23129;SDS011;11734;51.046;13.778;2023-05-29T10:38:16;2.57;;;2.17;;
23129;SDS011;11734;51.046;13.778;2023-05-29T10:40:45;3.30;;;2.30;;
23129;SDS011;11734;51.046;13.778;2023-05-29T10:43:31;2.30;;;2.10;;
23129;SDS011;11734;51.046;13.778;2023-05-29T10:45:59;2.67;;;2.10;;
23129;SDS011;11734;51.046;13.778;2023-05-29T10:50:55;2.20;;;1.90;;
23129;SDS011;11734;51.046;13.778;2023-05-29T10:53:23;4.03;;;2.33;;
23129;SDS011;11734;51.046;13.778;2023-05-29T10:55:52;2.90;;;2.33;;
23129;SDS011;11734;51.046;13.778;2023-05-29T10:58:21;3.57;;;2.70;;
23129;SDS011;11734;51.046;13.778;2023-05-29T11:00:52;2.60;;;2.40;;
23129;SDS011;11734;51.046;13.778;2023-05-29T11:03:22;3.33;;;2.10;;
23129;SDS011;11734;51.046;13.778;2023-05-29T11:05:59;2.33;;;2.10;;
23129;SDS011;11734;51.046;13.778;2023-05-29T11:11:14;2.43;;;2.10;;
23129;SDS011;11734;51.046;13.778;2023-05-29T11:13:42;2.80;;;2.50;;
23129;SDS011;11734;51.046;13.778;2023-05-29T11:16:19;2.57;;;2.37;;
23129;SDS011;11734;51.046;13.778;2023-05-29T11:18:47;2.60;;;2.07;;
23129;SDS011;11734;51.046;13.778;2023-05-29T11:21:21;2.40;;;1.90;;
23129;SDS011;11734;51.046;13.778;2023-05-29T11:23:51;2.57;;;2.27;;
23129;SDS011;11734;51.046;13.778;2023-05-29T11:26:19;3.70;;;2.43;;
23129;SDS011;11734;51.046;13.778;2023-05-29T11:28:47;2.90;;;2.47;;
23129;SDS011;11734;51.046;13.778;2023-05-29T11:31:14;3.10;;;2.30;;
23129;SDS011;11734;51.046;13.778;2023-05-29T11:33:47;2.33;;;2.00;;
23129;SDS011;11734;51.046;13.778;2023-05-29T11:36:16;3.63;;;2.87;;
23129;SDS011;11734;51.046;13.778;2023-05-29T11:38:44;2.50;;;2.30;;
23129;SDS011;11734;51.046;13.778;2023-05-29T11:41:11;3.03;;;2.70;;
23129;SDS011;11734;51.046;13.778;2023-05-29T11:43:39;3.10;;;2.50;;
23129;SDS011;11734;51.046;13.778;2023-05-29T11:46:14;3.07;;;2.43;;
23129;SDS011;11734;51.046;13.778;2023-05-29T11:48:44;2.53;;;2.33;;
23129;SDS011;11734;51.046;13.778;2023-05-29T11:51:12;2.87;;;2.20;;
23129;SDS011;11734;51.046;13.778;2023-05-29T11:53:40;3.43;;;2.30;;
23129;SDS011;11734;51.046;13.778;2023-05-29T11:56:11;2.17;;;1.97;;
23129;SDS011;11734;51.046;13.778;2023-05-29T11:58:39;2.50;;;2.23;;
23129;SDS011;11734;51.046;13.778;2023-05-29T12:01:07;2.43;;;2.10;;
23129;SDS011;11734;51.046;13.778;2023-05-29T12:03:38;3.07;;;2.20;;
23129;SDS011;11734;51.046;13.778;2023-05-29T12:06:06;4.50;;;2.80;;
23129;SDS011;11734;51.046;13.778;2023-05-29T12:08:34;2.90;;;2.23;;
23129;SDS011;11734;51.046;13.778;2023-05-29T12:11:02;3.33;;;2.57;;
23129;SDS011;11734;51.046;13.778;2023-05-29T12:13:29;2.93;;;2.30;;
23129;SDS011;11734;51.046;13.778;2023-05-29T12:15:57;3.30;;;2.50;;
23129;SDS011;11734;51.046;13.778;2023-05-29T12:18:25;2.87;;;2.40;;
23129;SDS011;11734;51.046;13.778;2023-05-29T12:21:02;3.23;;;2.40;;
23129;SDS011;11734;51.046;13.778;2023-05-29T12:23:30;3.10;;;2.40;;
23129;SDS011;11734;51.046;13.778;2023-05-29T12:25:58;3.07;;;2.50;;
23129;SDS011;11734;51.046;13.778;2023-05-29T12:28:25;2.70;;;2.40;;
23129;SDS011;11734;51.046;13.778;2023-05-29T12:30:57;2.23;;;2.03;;
23129;SDS011;11734;51.046;13.778;2023-05-29T12:33:28;2.73;;;2.27;;
23129;SDS011;11734;51.046;13.778;2023-05-29T12:36:04;4.60;;;2.30;;
23129;SDS011;11734;51.046;13.778;2023-05-29T12:38:33;3.17;;;2.47;;
23129;SDS011;11734;51.046;13.778;2023-05-29T12:41:02;7.40;;;5.07;;
23129;SDS011;11734;51.046;13.778;2023-05-29T12:43:29;4.23;;;3.37;;
23129;SDS011;11734;51.046;13.778;2023-05-29T12:45:57;2.63;;;2.40;;
23129;SDS011;11734;51.046;13.778;2023-05-29T12:48:27;2.37;;;2.10;;
23129;SDS011;11734;51.046;13.778;2023-05-29T12:50:54;2.43;;;2.23;;
23129;SDS011;11734;51.046;13.778;2023-05-29T12:53:22;2.23;;;1.93;;
23129;SDS011;11734;51.046;13.778;2023-05-29T12:55:56;2.97;;;2.23;;
23129;SDS011;11734;51.046;13.778;2023-05-29T12:58:24;2.33;;;2.10;;
23129;SDS011;11734;51.046;13.778;2023-05-29T13:00:52;3.23;;;2.00;;
23129;SDS011;11734;51.046;13.778;2023-05-29T13:03:22;2.60;;;2.30;;
23129;SDS011;11734;51.046;13.778;2023-05-29T13:05:50;2.30;;;2.10;;
23129;SDS011;11734;51.046;13.778;2023-05-29T13:08:17;2.60;;;2.30;;
23129;SDS011;11734;51.046;13.778;2023-05-29T13:10:45;2.23;;;2.03;;
23129;SDS011;11734;51.046;13.778;2023-05-29T13:13:12;2.43;;;2.23;;
23129;SDS011;11734;51.046;13.778;2023-05-29T13:15:39;3.60;;;2.43;;
23129;SDS011;11734;51.046;13.778;2023-05-29T13:18:07;2.43;;;2.23;;
23129;SDS011;11734;51.046;13.778;2023-05-29T13:20:34;2.73;;;2.30;;
23129;SDS011;11734;51.046;13.778;2023-05-29T13:23:01;4.70;;;2.27;;
23129;SDS011;11734;51.046;13.778;2023-05-29T13:25:29;2.90;;;2.37;;
23129;SDS011;11734;51.046;13.778;2023-05-29T13:27:56;2.67;;;2.37;;
23129;SDS011;11734;51.046;13.778;2023-05-29T13:30:23;4.17;;;3.77;;
23129;SDS011;11734;51.046;13.778;2023-05-29T13:32:51;4.63;;;2.40;;
23129;SDS011;11734;51.046;13.778;2023-05-29T13:35:19;3.63;;;2.50;;
23129;SDS011;11734;51.046;13.778;2023-05-29T13:37:46;3.00;;;2.20;;
23129;SDS011;11734;51.046;13.778;2023-05-29T13:40:14;3.70;;;2.70;;
23129;SDS011;11734;51.046;13.778;2023-05-29T13:42:41;3.50;;;2.60;;
23129;SDS011;11734;51.046;13.778;2023-05-29T13:45:09;4.07;;;2.53;;
23129;SDS011;11734;51.046;13.778;2023-05-29T13:47:38;4.33;;;2.53;;
23129;SDS011;11734;51.046;13.778;2023-05-29T13:50:05;2.53;;;2.17;;
23129;SDS011;11734;51.046;13.778;2023-05-29T13:52:33;3.23;;;2.60;;
23129;SDS011;11734;51.046;13.778;2023-05-29T13:55:00;2.97;;;2.37;;
23129;SDS011;11734;51.046;13.778;2023-05-29T13:57:32;3.03;;;2.53;;
23129;SDS011;11734;51.046;13.778;2023-05-29T14:00:00;3.57;;;2.70;;
23129;SDS011;11734;51.046;13.778;2023-05-29T14:02:47;3.73;;;2.63;;
23129;SDS011;11734;51.046;13.778;2023-05-29T14:05:15;2.83;;;2.50;;
23129;SDS011;11734;51.046;13.778;2023-05-29T14:07:42;3.73;;;2.47;;
23129;SDS011;11734;51.046;13.778;2023-05-29T14:10:09;3.00;;;2.17;;
23129;SDS011;11734;51.046;13.778;2023-05-29T14:12:38;3.13;;;2.60;;
23129;SDS011;11734;51.046;13.778;2023-05-29T14:15:06;2.90;;;2.30;;
23129;SDS011;11734;51.046;13.778;2023-05-29T14:17:33;3.87;;;2.40;;
23129;SDS011;11734;51.046;13.778;2023-05-29T14:20:01;3.63;;;2.77;;
23129;SDS011;11734;51.046;13.778;2023-05-29T14:22:31;3.07;;;2.20;;
23129;SDS011;11734;51.046;13.778;2023-05-29T14:24:58;2.70;;;2.40;;
23129;SDS011;11734;51.046;13.778;2023-05-29T14:27:27;3.07;;;2.33;;
23129;SDS011;11734;51.046;13.778;2023-05-29T14:29:54;3.10;;;2.40;;
23129;SDS011;11734;51.046;13.778;2023-05-29T14:32:21;3.37;;;2.33;;
23129;SDS011;11734;51.046;13.778;2023-05-29T14:34:49;2.97;;;2.47;;
23129;SDS011;11734;51.046;13.778;2023-05-29T14:37:17;3.10;;;2.27;;
23129;SDS011;11734;51.046;13.778;2023-05-29T14:39:45;3.70;;;2.53;;
23129;SDS011;11734;51.046;13.778;2023-05-29T14:42:12;3.30;;;2.50;;
23129;SDS011;11734;51.046;13.778;2023-05-29T14:44:41;3.13;;;2.77;;
23129;SDS011;11734;51.046;13.778;2023-05-29T14:47:09;3.17;;;2.60;;
23129;SDS011;11734;51.046;13.778;2023-05-29T14:49:37;3.67;;;2.60;;
23129;SDS011;11734;51.046;13.778;2023-05-29T14:52:04;2.60;;;2.37;;
23129;SDS011;11734;51.046;13.778;2023-05-29T14:54:32;3.47;;;2.53;;
23129;SDS011;11734;51.046;13.778;2023-05-29T14:56:59;3.47;;;2.27;;
23129;SDS011;11734;51.046;13.778;2023-05-29T14:59:26;3.10;;;2.47;;
23129;SDS011;11734;51.046;13.778;2023-05-29T15:01:54;2.63;;;2.30;;